createdAt,value
2022-07-25T00:00:59.007Z,7.60
2022-07-25T00:01:59.133Z,7.50
2022-07-25T00:02:58.983Z,6.40
2022-07-25T00:03:59.009Z,6.20
2022-07-25T00:04:59.017Z,6.90
2022-07-25T00:05:58.951Z,6.80
2022-07-25T00:06:58.946Z,6.90
2022-07-25T00:07:58.938Z,6.70
2022-07-25T00:08:58.934Z,6.70
2022-07-25T00:09:58.913Z,6.70
2022-07-25T00:10:58.901Z,6.80
2022-07-25T00:11:58.892Z,6.70
2022-07-25T00:12:58.879Z,6.70
2022-07-25T00:13:59.885Z,6.60
2022-07-25T00:14:58.872Z,7.10
2022-07-25T00:15:58.905Z,7.10
2022-07-25T00:16:58.841Z,6.80
2022-07-25T00:17:58.843Z,7.00
2022-07-25T00:18:58.875Z,7.10
2022-07-25T00:19:58.812Z,7.10
2022-07-25T00:20:58.805Z,7.70
2022-07-25T00:21:58.790Z,7.90
2022-07-25T00:22:58.786Z,8.30
2022-07-25T00:23:58.781Z,8.40
2022-07-25T00:24:58.764Z,7.70
2022-07-25T00:25:58.759Z,8.10
2022-07-25T00:26:58.769Z,7.80
2022-07-25T00:27:58.733Z,7.40
2022-07-25T00:28:58.734Z,7.70
2022-07-25T00:29:58.714Z,7.50
2022-07-25T00:30:58.767Z,7.60
2022-07-25T00:31:58.700Z,7.90
2022-07-25T00:32:58.690Z,7.20
2022-07-25T00:33:58.683Z,7.30
2022-07-25T00:34:58.667Z,7.60
2022-07-25T00:35:58.655Z,7.50
2022-07-25T00:36:58.644Z,8.10
2022-07-25T00:37:58.643Z,7.60
2022-07-25T00:38:58.637Z,8.20
2022-07-25T00:39:58.618Z,8.20
2022-07-25T00:40:58.613Z,8.20
2022-07-25T00:41:58.598Z,7.70
2022-07-25T00:42:58.591Z,7.50
2022-07-25T00:43:58.598Z,7.60
2022-07-25T00:44:58.578Z,8.00
2022-07-25T00:45:58.751Z,7.80
2022-07-25T00:46:58.681Z,7.90
2022-07-25T00:47:58.545Z,8.80
2022-07-25T00:48:58.604Z,8.20
2022-07-25T00:49:58.520Z,8.00
2022-07-25T00:50:58.510Z,7.90
2022-07-25T00:51:58.499Z,8.20
2022-07-25T00:52:58.495Z,8.00
2022-07-25T00:53:58.503Z,8.00
2022-07-25T00:54:58.473Z,8.40
2022-07-25T00:55:58.460Z,7.70
2022-07-25T00:56:58.447Z,7.50
2022-07-25T00:57:58.439Z,7.60
2022-07-25T00:58:58.443Z,7.60
2022-07-25T00:59:58.416Z,7.30
2022-07-25T01:00:58.410Z,7.70
2022-07-25T01:01:58.459Z,7.50
2022-07-25T01:02:58.649Z,7.40
2022-07-25T01:03:58.403Z,7.70
2022-07-25T01:04:58.378Z,8.00
2022-07-25T01:05:58.370Z,8.00
2022-07-25T01:06:58.348Z,7.90
2022-07-25T01:07:59.351Z,8.60
2022-07-25T01:08:58.347Z,8.20
2022-07-25T01:09:58.326Z,7.80
2022-07-25T01:10:58.322Z,8.10
2022-07-25T01:11:58.313Z,7.80
2022-07-25T01:12:58.298Z,8.20
2022-07-25T01:13:58.308Z,8.30
2022-07-25T01:14:58.284Z,7.80
2022-07-25T01:15:58.336Z,7.60
2022-07-25T01:16:58.266Z,8.60
2022-07-25T01:17:58.258Z,8.50
2022-07-25T01:18:58.259Z,7.60
2022-07-25T01:19:58.227Z,8.20
2022-07-25T01:20:58.230Z,7.30
2022-07-25T01:21:58.208Z,8.10
2022-07-25T01:22:58.194Z,8.00
2022-07-25T01:23:58.189Z,7.80
2022-07-25T01:24:58.191Z,8.00
2022-07-25T01:25:58.177Z,8.00
2022-07-25T01:26:58.161Z,7.80
2022-07-25T01:27:58.152Z,7.90
2022-07-25T01:28:58.145Z,7.80
2022-07-25T01:29:58.141Z,7.40
2022-07-25T01:30:58.145Z,7.90
2022-07-25T01:31:58.110Z,7.70
2022-07-25T01:32:58.101Z,8.10
2022-07-25T01:33:58.089Z,7.40
2022-07-25T01:34:58.092Z,7.80
2022-07-25T01:35:58.061Z,7.90
2022-07-25T01:36:58.074Z,8.10
2022-07-25T01:37:58.050Z,7.50
2022-07-25T01:38:58.037Z,7.80
2022-07-25T01:39:58.051Z,7.30
2022-07-25T01:40:58.019Z,7.70
2022-07-25T01:41:58.006Z,7.70
2022-07-25T01:42:57.997Z,7.80
2022-07-25T01:43:57.983Z,7.30
2022-07-25T01:44:57.992Z,7.60
2022-07-25T01:45:58.020Z,8.20
2022-07-25T01:46:57.942Z,8.10
2022-07-25T01:47:58.951Z,7.40
2022-07-25T01:48:57.984Z,7.00
2022-07-25T01:49:57.940Z,6.80
2022-07-25T01:50:57.916Z,7.30
2022-07-25T01:51:57.910Z,6.80
2022-07-25T01:52:57.909Z,6.90
2022-07-25T01:53:57.888Z,7.40
2022-07-25T01:54:57.902Z,7.40
2022-07-25T01:55:57.866Z,7.10
2022-07-25T01:56:57.856Z,6.90
2022-07-25T01:57:57.847Z,7.40
2022-07-25T01:58:57.837Z,7.40
2022-07-25T01:59:57.836Z,7.00
2022-07-25T02:00:57.854Z,7.00
2022-07-25T02:01:57.879Z,7.10
2022-07-25T02:02:57.798Z,7.40
2022-07-25T02:03:57.792Z,7.20
2022-07-25T02:04:57.903Z,7.10
2022-07-25T02:05:57.766Z,7.50
2022-07-25T02:06:58.759Z,7.60
2022-07-25T02:07:57.748Z,8.30
2022-07-25T02:08:57.741Z,7.50
2022-07-25T02:09:57.738Z,8.30
2022-07-25T02:10:57.718Z,8.10
2022-07-25T02:11:57.708Z,8.10
2022-07-25T02:12:57.697Z,8.20
2022-07-25T02:13:57.701Z,9.10
2022-07-25T02:14:57.692Z,8.30
2022-07-25T02:15:57.671Z,7.70
2022-07-25T02:16:57.717Z,7.50
2022-07-25T02:17:57.644Z,8.20
2022-07-25T02:18:57.637Z,7.30
2022-07-25T02:19:57.642Z,7.90
2022-07-25T02:20:57.622Z,8.00
2022-07-25T02:21:57.610Z,7.50
2022-07-25T02:22:57.596Z,7.50
2022-07-25T02:23:57.592Z,7.90
2022-07-25T02:24:57.592Z,8.70
2022-07-25T02:25:57.564Z,8.30
2022-07-25T02:26:57.554Z,8.50
2022-07-25T02:27:57.551Z,7.70
2022-07-25T02:28:57.534Z,8.40
2022-07-25T02:29:57.542Z,8.50
2022-07-25T02:30:57.583Z,8.20
2022-07-25T02:31:57.515Z,8.10
2022-07-25T02:32:57.498Z,8.50
2022-07-25T02:33:57.487Z,8.10
2022-07-25T02:34:57.490Z,8.30
2022-07-25T02:35:57.465Z,8.10
2022-07-25T02:36:57.457Z,8.00
2022-07-25T02:37:57.451Z,7.80
2022-07-25T02:38:57.434Z,8.30
2022-07-25T02:39:57.434Z,7.80
2022-07-25T02:40:57.415Z,7.60
2022-07-25T02:41:57.412Z,7.90
2022-07-25T02:42:57.397Z,7.20
2022-07-25T02:43:57.380Z,8.10
2022-07-25T02:44:58.396Z,8.10
2022-07-25T02:45:57.460Z,8.30
2022-07-25T02:46:57.359Z,7.60
2022-07-25T02:47:57.349Z,8.40
2022-07-25T02:48:57.397Z,8.50
2022-07-25T02:49:57.341Z,8.20
2022-07-25T02:50:57.321Z,8.20
2022-07-25T02:51:57.302Z,8.10
2022-07-25T02:52:57.291Z,8.70
2022-07-25T02:53:58.691Z,9.00
2022-07-25T02:54:58.287Z,8.90
2022-07-25T02:55:57.268Z,8.60
2022-07-25T02:56:57.257Z,8.60
2022-07-25T02:57:57.243Z,8.40
2022-07-25T02:58:57.242Z,9.00
2022-07-25T02:59:57.242Z,8.60
2022-07-25T03:00:57.253Z,8.20
2022-07-25T03:01:57.208Z,8.10
2022-07-25T03:02:57.194Z,8.20
2022-07-25T03:03:57.266Z,9.20
2022-07-25T03:04:57.182Z,8.20
2022-07-25T03:05:57.168Z,8.30
2022-07-25T03:06:57.158Z,8.40
2022-07-25T03:07:57.147Z,8.50
2022-07-25T03:08:57.132Z,8.60
2022-07-25T03:09:57.137Z,8.90
2022-07-25T03:10:57.113Z,9.30
2022-07-25T03:11:57.097Z,8.00
2022-07-25T03:12:57.090Z,8.80
2022-07-25T03:13:57.088Z,8.50
2022-07-25T03:14:57.083Z,8.60
2022-07-25T03:15:57.071Z,8.50
2022-07-25T03:16:57.094Z,8.70
2022-07-25T03:17:57.041Z,8.20
2022-07-25T03:18:57.032Z,9.40
2022-07-25T03:19:57.048Z,8.20
2022-07-25T03:20:57.015Z,8.90
2022-07-25T03:21:57.003Z,9.10
2022-07-25T03:22:56.991Z,9.10
2022-07-25T03:23:56.989Z,9.10
2022-07-25T03:24:56.970Z,8.90
2022-07-25T03:25:56.977Z,9.90
2022-07-25T03:26:56.952Z,9.10
2022-07-25T03:27:56.958Z,9.40
2022-07-25T03:28:56.933Z,9.50
2022-07-25T03:29:56.928Z,10.00
2022-07-25T03:30:56.927Z,9.90
2022-07-25T03:31:56.924Z,10.00
2022-07-25T03:32:56.895Z,9.80
2022-07-25T03:33:56.885Z,9.60
2022-07-25T03:34:56.871Z,10.00
2022-07-25T03:35:56.870Z,9.80
2022-07-25T03:36:56.854Z,9.20
2022-07-25T03:37:56.854Z,9.10
2022-07-25T03:38:56.833Z,8.80
2022-07-25T03:39:56.821Z,9.20
2022-07-25T03:40:56.824Z,9.20
2022-07-25T03:41:56.801Z,9.60
2022-07-25T03:42:56.803Z,9.60
2022-07-25T03:43:56.784Z,8.90
2022-07-25T03:44:56.776Z,9.20
2022-07-25T03:45:56.880Z,9.30
2022-07-25T03:46:56.752Z,8.50
2022-07-25T03:47:56.746Z,9.40
2022-07-25T03:48:56.787Z,8.30
2022-07-25T03:49:56.723Z,8.80
2022-07-25T03:50:56.729Z,9.10
2022-07-25T03:51:56.711Z,8.80
2022-07-25T03:52:56.700Z,8.90
2022-07-25T03:53:56.688Z,8.90
2022-07-25T03:54:56.681Z,9.00
2022-07-25T03:55:56.678Z,9.50
2022-07-25T03:56:56.656Z,8.50
2022-07-25T03:57:56.647Z,8.70
2022-07-25T03:58:56.631Z,8.60
2022-07-25T03:59:56.626Z,9.00
2022-07-25T04:00:56.685Z,8.60
2022-07-25T04:01:56.646Z,8.40
2022-07-25T04:02:56.611Z,8.60
2022-07-25T04:03:56.590Z,9.10
2022-07-25T04:04:56.573Z,8.20
2022-07-25T04:05:56.591Z,8.50
2022-07-25T04:06:56.553Z,8.50
2022-07-25T04:07:56.550Z,8.70
2022-07-25T04:08:56.536Z,8.40
2022-07-25T04:09:56.526Z,8.40
2022-07-25T04:10:56.529Z,9.30
2022-07-25T04:11:56.503Z,8.10
2022-07-25T04:12:56.503Z,9.00
2022-07-25T04:13:56.485Z,8.80
2022-07-25T04:14:56.475Z,8.80
2022-07-25T04:15:56.473Z,8.20
2022-07-25T04:16:56.482Z,8.80
2022-07-25T04:17:56.453Z,9.40
2022-07-25T04:18:56.874Z,8.50
2022-07-25T04:19:56.657Z,8.90
2022-07-25T04:20:56.435Z,8.80
2022-07-25T04:21:56.406Z,8.60
2022-07-25T04:22:56.460Z,8.90
2022-07-25T04:23:56.400Z,8.70
2022-07-25T04:24:56.407Z,9.20
2022-07-25T04:25:56.404Z,9.20
2022-07-25T04:26:56.360Z,9.60
2022-07-25T04:27:56.352Z,9.00
2022-07-25T04:28:56.342Z,8.70
2022-07-25T04:29:56.344Z,9.80
2022-07-25T04:30:56.328Z,9.50
2022-07-25T04:31:56.381Z,9.80
2022-07-25T04:32:56.306Z,9.20
2022-07-25T04:33:56.297Z,9.20
2022-07-25T04:34:56.289Z,9.80
2022-07-25T04:35:57.310Z,9.20
2022-07-25T04:36:56.266Z,9.00
2022-07-25T04:37:56.260Z,9.10
2022-07-25T04:38:56.246Z,9.40
2022-07-25T04:39:56.224Z,9.00
2022-07-25T04:40:56.235Z,9.30
2022-07-25T04:41:56.204Z,8.90
2022-07-25T04:42:56.198Z,9.60
2022-07-25T04:43:56.194Z,9.90
2022-07-25T04:44:56.173Z,9.70
2022-07-25T04:45:56.257Z,9.60
2022-07-25T04:46:56.164Z,9.80
2022-07-25T04:47:56.155Z,10.30
2022-07-25T04:48:56.238Z,10.60
2022-07-25T04:49:56.133Z,9.80
2022-07-25T04:50:56.144Z,10.00
2022-07-25T04:51:56.106Z,10.60
2022-07-25T04:52:56.109Z,10.70
2022-07-25T04:53:56.092Z,10.70
2022-07-25T04:54:56.081Z,11.20
2022-07-25T04:55:56.088Z,10.60
2022-07-25T04:56:56.065Z,11.00
2022-07-25T04:57:56.046Z,10.60
2022-07-25T04:58:56.037Z,11.40
2022-07-25T04:59:57.046Z,11.30
2022-07-25T05:00:56.074Z,10.90
2022-07-25T05:01:56.048Z,10.60
2022-07-25T05:02:56.006Z,10.90
2022-07-25T05:03:55.995Z,11.20
2022-07-25T05:04:55.983Z,11.10
2022-07-25T05:05:55.981Z,10.80
2022-07-25T05:06:55.968Z,11.00
2022-07-25T05:07:55.982Z,11.80
2022-07-25T05:08:55.941Z,11.40
2022-07-25T05:09:55.937Z,11.60
2022-07-25T05:10:55.928Z,11.40
2022-07-25T05:11:56.644Z,11.50
2022-07-25T05:12:56.907Z,12.80
2022-07-25T05:13:55.888Z,11.40
2022-07-25T05:14:55.873Z,11.70
2022-07-25T05:15:55.940Z,12.00
2022-07-25T05:16:55.925Z,12.30
2022-07-25T05:17:55.856Z,12.00
2022-07-25T05:18:55.841Z,11.70
2022-07-25T05:19:55.828Z,12.00
2022-07-25T05:20:55.853Z,12.10
2022-07-25T05:21:55.815Z,11.20
2022-07-25T05:22:57.575Z,11.70
2022-07-25T05:23:55.804Z,11.10
2022-07-25T05:24:55.805Z,11.10
2022-07-25T05:25:55.803Z,11.10
2022-07-25T05:26:55.765Z,10.70
2022-07-25T05:27:55.765Z,10.70
2022-07-25T05:28:55.762Z,11.20
2022-07-25T05:29:55.752Z,11.30
2022-07-25T05:30:55.915Z,10.90
2022-07-25T05:31:55.774Z,11.00
2022-07-25T05:32:56.715Z,10.40
2022-07-25T05:33:55.871Z,11.00
2022-07-25T05:34:55.702Z,11.00
2022-07-25T05:35:55.743Z,11.60
2022-07-25T05:36:55.720Z,11.30
2022-07-25T05:37:55.722Z,11.00
2022-07-25T05:38:55.682Z,10.50
2022-07-25T05:39:55.735Z,11.60
2022-07-25T05:40:55.687Z,10.90
2022-07-25T05:41:55.620Z,10.10
2022-07-25T05:43:00.800Z,10.90
2022-07-25T05:43:57.637Z,10.50
2022-07-25T05:44:55.591Z,10.50
2022-07-25T05:45:55.603Z,10.20
2022-07-25T05:46:55.621Z,10.30
2022-07-25T05:47:55.569Z,10.20
2022-07-25T05:48:55.571Z,10.50
2022-07-25T05:49:55.542Z,10.10
2022-07-25T05:50:55.532Z,9.80
2022-07-25T05:51:55.554Z,9.20
2022-07-25T05:52:55.541Z,9.30
2022-07-25T05:53:55.598Z,9.40
2022-07-25T05:54:55.518Z,9.80
2022-07-25T05:55:55.494Z,9.80
2022-07-25T05:56:55.470Z,9.80
2022-07-25T05:57:55.456Z,8.60
2022-07-25T05:58:55.440Z,9.10
2022-07-25T05:59:55.446Z,9.30
2022-07-25T06:00:55.439Z,9.10
2022-07-25T06:01:55.531Z,8.90
2022-07-25T06:02:55.535Z,9.30
2022-07-25T06:03:55.435Z,9.10
2022-07-25T06:04:55.458Z,9.10
2022-07-25T06:05:55.434Z,9.40
2022-07-25T06:06:55.399Z,9.90
2022-07-25T06:07:55.441Z,9.30
2022-07-25T06:08:55.423Z,9.10
2022-07-25T06:09:55.382Z,8.90
2022-07-25T06:10:56.417Z,9.30
2022-07-25T06:12:00.621Z,9.00
2022-07-25T06:12:57.337Z,8.80
2022-07-25T06:13:55.395Z,9.20
2022-07-25T06:14:55.311Z,9.10
2022-07-25T06:15:55.375Z,9.60
2022-07-25T06:16:55.353Z,9.00
2022-07-25T06:17:55.301Z,8.90
2022-07-25T06:18:55.316Z,9.20
2022-07-25T06:19:55.265Z,8.60
2022-07-25T06:20:55.305Z,9.60
2022-07-25T06:21:55.254Z,9.40
2022-07-25T06:22:55.245Z,9.30
2022-07-25T06:23:55.216Z,9.10
2022-07-25T06:24:55.205Z,9.00
2022-07-25T06:25:55.278Z,9.30
2022-07-25T06:26:55.184Z,10.50
2022-07-25T06:27:55.204Z,10.20
2022-07-25T06:28:55.185Z,9.50
2022-07-25T06:29:55.165Z,10.00
2022-07-25T06:30:55.221Z,9.20
2022-07-25T06:31:55.181Z,10.30
2022-07-25T06:32:55.138Z,10.10
2022-07-25T06:33:55.187Z,10.10
2022-07-25T06:34:55.139Z,9.40
2022-07-25T06:35:55.104Z,9.70
2022-07-25T06:36:55.093Z,10.00
2022-07-25T06:37:55.087Z,9.80
2022-07-25T06:38:55.167Z,10.40
2022-07-25T06:39:55.104Z,10.30
2022-07-25T06:40:55.128Z,10.10
2022-07-25T06:41:55.104Z,9.40
2022-07-25T06:42:55.073Z,10.10
2022-07-25T06:43:55.037Z,10.10
2022-07-25T06:44:55.031Z,9.50
2022-07-25T06:45:55.013Z,9.60
2022-07-25T06:46:55.058Z,9.60
2022-07-25T06:47:54.986Z,9.80
2022-07-25T06:48:55.027Z,9.80
2022-07-25T06:49:55.048Z,9.70
2022-07-25T06:50:54.992Z,8.50
2022-07-25T06:51:55.007Z,9.20
2022-07-25T06:52:54.979Z,8.50
2022-07-25T06:53:54.985Z,8.90
2022-07-25T06:54:54.948Z,9.00
2022-07-25T06:55:54.953Z,9.00
2022-07-25T06:56:54.988Z,8.80
2022-07-25T06:57:55.022Z,8.40
2022-07-25T06:58:54.921Z,8.10
2022-07-25T06:59:54.878Z,8.90
2022-07-25T07:00:55.923Z,8.30
2022-07-25T07:01:54.913Z,8.80
2022-07-25T07:02:54.927Z,8.70
2022-07-25T07:03:55.060Z,8.90
2022-07-25T07:04:54.849Z,8.20
2022-07-25T07:05:54.824Z,7.90
2022-07-25T07:06:54.863Z,8.00
2022-07-25T07:07:54.842Z,8.10
2022-07-25T07:08:54.847Z,8.20
2022-07-25T07:09:54.837Z,8.40
2022-07-25T07:10:54.858Z,8.10
2022-07-25T07:12:01.607Z,8.20
2022-07-25T07:12:58.566Z,8.30
2022-07-25T07:13:55.435Z,8.00
2022-07-25T07:14:54.904Z,7.70
2022-07-25T07:15:54.881Z,8.10
2022-07-25T07:16:54.849Z,8.40
2022-07-25T07:17:54.735Z,8.00
2022-07-25T07:18:54.732Z,7.80
2022-07-25T07:19:54.735Z,8.80
2022-07-25T07:20:54.704Z,7.50
2022-07-25T07:21:54.718Z,7.80
2022-07-25T07:22:54.711Z,7.70
2022-07-25T07:23:54.690Z,8.20
2022-07-25T07:24:54.683Z,7.00
2022-07-25T07:25:54.636Z,7.60
2022-07-25T07:26:54.679Z,7.00
2022-07-25T07:27:54.659Z,7.40
2022-07-25T07:28:54.640Z,7.00
2022-07-25T07:29:54.607Z,7.20
2022-07-25T07:31:56.671Z,7.10
2022-07-25T07:32:54.628Z,7.20
2022-07-25T07:33:55.589Z,7.90
2022-07-25T07:34:54.592Z,7.20
2022-07-25T07:35:54.551Z,7.20
2022-07-25T07:36:54.621Z,7.50
2022-07-25T07:37:54.577Z,7.10
2022-07-25T07:38:54.604Z,7.50
2022-07-25T07:39:54.509Z,7.60
2022-07-25T07:40:54.505Z,7.50
2022-07-25T07:41:55.562Z,7.60
2022-07-25T07:42:55.533Z,7.90
2022-07-25T07:43:54.527Z,7.70
2022-07-25T07:44:54.496Z,7.00
2022-07-25T07:45:54.484Z,7.30
2022-07-25T07:46:54.584Z,7.80
2022-07-25T07:47:54.492Z,7.40
2022-07-25T07:48:54.543Z,7.30
2022-07-25T07:49:54.435Z,7.30
2022-07-25T07:50:54.581Z,7.30
2022-07-25T07:51:54.453Z,7.50
2022-07-25T07:52:54.445Z,7.50
2022-07-25T07:53:55.236Z,7.40
2022-07-25T07:54:59.208Z,7.20
2022-07-25T07:55:56.353Z,7.40
2022-07-25T07:56:54.377Z,7.10
2022-07-25T07:57:54.387Z,7.10
2022-07-25T07:58:54.385Z,7.30
2022-07-25T07:59:54.346Z,7.10
2022-07-25T08:00:54.306Z,7.30
2022-07-25T08:01:54.368Z,7.40
2022-07-25T08:02:54.371Z,7.70
2022-07-25T08:03:54.321Z,6.90
2022-07-25T08:04:54.344Z,7.40
2022-07-25T08:05:54.282Z,7.50
2022-07-25T08:06:54.302Z,7.20
2022-07-25T08:07:54.258Z,7.50
2022-07-25T08:08:54.276Z,7.60
2022-07-25T08:09:54.300Z,7.30
2022-07-25T08:10:58.610Z,7.20
2022-07-25T08:11:55.236Z,7.20
2022-07-25T08:12:54.258Z,8.40
2022-07-25T08:13:54.231Z,7.50
2022-07-25T08:14:54.212Z,7.60
2022-07-25T08:15:54.281Z,7.40
2022-07-25T08:16:54.186Z,7.90
2022-07-25T08:17:54.153Z,7.30
2022-07-25T08:18:54.154Z,7.20
2022-07-25T08:19:54.174Z,7.80
2022-07-25T08:20:54.130Z,7.30
2022-07-25T08:21:54.165Z,7.60
2022-07-25T08:22:56.688Z,7.50
2022-07-25T08:23:55.106Z,7.50
2022-07-25T08:24:54.098Z,7.60
2022-07-25T08:25:54.097Z,7.50
2022-07-25T08:26:54.096Z,7.30
2022-07-25T08:27:54.102Z,7.80
2022-07-25T08:29:17.110Z,7.90
2022-07-25T08:29:56.135Z,7.20
2022-07-25T08:30:55.068Z,7.90
2022-07-25T08:31:54.094Z,7.60
2022-07-25T08:32:54.075Z,7.40
2022-07-25T08:33:54.020Z,7.80
2022-07-25T08:34:54.014Z,7.10
2022-07-25T08:35:54.055Z,7.30
2022-07-25T08:36:54.102Z,7.70
2022-07-25T08:37:54.019Z,7.60
2022-07-25T08:38:54.025Z,6.80
2022-07-25T08:39:54.024Z,7.30
2022-07-25T08:40:54.027Z,7.10
2022-07-25T08:41:54.028Z,7.50
2022-07-25T08:42:53.924Z,7.00
2022-07-25T08:43:54.006Z,7.40
2022-07-25T08:44:53.940Z,7.70
2022-07-25T08:45:54.019Z,7.70
2022-07-25T08:46:54.036Z,7.80
2022-07-25T08:47:53.910Z,7.30
2022-07-25T08:48:54.006Z,7.30
2022-07-25T08:49:53.978Z,7.50
2022-07-25T08:50:54.713Z,7.50
2022-07-25T08:51:54.611Z,7.00
2022-07-25T08:53:09.943Z,7.80
2022-07-25T08:53:55.838Z,7.30
2022-07-25T08:54:53.817Z,7.90
2022-07-25T08:55:53.851Z,7.70
2022-07-25T08:56:53.850Z,7.60
2022-07-25T08:57:53.834Z,7.10
2022-07-25T08:58:53.781Z,7.90
2022-07-25T08:59:53.780Z,7.10
2022-07-25T09:00:53.885Z,7.80
2022-07-25T09:01:53.879Z,7.80
2022-07-25T09:02:53.853Z,7.60
2022-07-25T09:03:53.826Z,7.30
2022-07-25T09:04:53.737Z,7.10
2022-07-25T09:05:53.735Z,7.50
2022-07-25T09:06:53.695Z,7.30
2022-07-25T09:07:53.740Z,7.20
2022-07-25T09:08:53.690Z,7.40
2022-07-25T09:09:53.670Z,7.40
2022-07-25T09:10:53.660Z,8.10
2022-07-25T09:11:53.674Z,7.30
2022-07-25T09:12:53.727Z,7.40
2022-07-25T09:13:53.682Z,7.40
2022-07-25T09:14:54.418Z,7.40
2022-07-25T09:15:53.764Z,7.40
2022-07-25T09:16:53.619Z,8.10
2022-07-25T09:17:53.641Z,7.50
2022-07-25T09:18:53.612Z,7.50
2022-07-25T09:19:53.592Z,7.40
2022-07-25T09:20:53.587Z,7.20
2022-07-25T09:21:53.590Z,7.20
2022-07-25T09:22:53.632Z,7.30
2022-07-25T09:23:53.613Z,7.20
2022-07-25T09:24:53.585Z,7.20
2022-07-25T09:25:53.583Z,6.90
2022-07-25T09:26:53.560Z,7.70
2022-07-25T09:27:53.654Z,7.00
2022-07-25T09:28:53.580Z,7.30
2022-07-25T09:29:53.561Z,6.80
2022-07-25T09:30:53.559Z,7.50
2022-07-25T09:31:53.506Z,7.60
2022-07-25T09:32:53.522Z,7.40
2022-07-25T09:33:53.521Z,7.30
2022-07-25T09:34:53.475Z,7.70
2022-07-25T09:35:53.520Z,7.00
2022-07-25T09:36:53.452Z,7.40
2022-07-25T09:37:53.456Z,6.90
2022-07-25T09:38:53.454Z,7.10
2022-07-25T09:39:53.416Z,6.90
2022-07-25T09:40:53.466Z,7.00
2022-07-25T09:41:53.467Z,6.70
2022-07-25T09:42:53.476Z,6.90
2022-07-25T09:43:53.407Z,6.60
2022-07-25T09:44:54.383Z,6.40
2022-07-25T09:45:53.416Z,7.00
2022-07-25T09:46:53.361Z,6.50
2022-07-25T09:47:53.415Z,7.10
2022-07-25T09:48:53.412Z,7.40
2022-07-25T09:49:53.378Z,6.70
2022-07-25T09:50:53.323Z,7.10
2022-07-25T09:51:53.332Z,7.00
2022-07-25T09:52:53.365Z,7.00
2022-07-25T09:53:53.314Z,7.70
2022-07-25T09:54:53.301Z,7.00
2022-07-25T09:55:53.286Z,6.80
2022-07-25T09:56:53.288Z,6.80
2022-07-25T09:57:53.294Z,6.50
2022-07-25T09:58:53.236Z,6.40
2022-07-25T09:59:53.296Z,6.80
2022-07-25T10:00:53.263Z,6.60
2022-07-25T10:01:53.246Z,6.20
2022-07-25T10:02:53.342Z,6.60
2022-07-25T10:03:53.232Z,6.20
2022-07-25T10:04:53.215Z,6.10
2022-07-25T10:05:53.216Z,6.20
2022-07-25T10:06:53.201Z,6.00
2022-07-25T10:07:53.157Z,6.10
2022-07-25T10:08:53.146Z,5.90
2022-07-25T10:09:53.139Z,5.70
2022-07-25T10:10:53.122Z,6.00
2022-07-25T10:11:53.123Z,5.80
2022-07-25T10:12:53.155Z,5.50
2022-07-25T10:13:53.124Z,5.60
2022-07-25T10:14:53.174Z,5.90
2022-07-25T10:15:53.151Z,5.90
2022-07-25T10:16:53.200Z,5.90
2022-07-25T10:17:53.128Z,5.10
2022-07-25T10:18:53.075Z,5.30
2022-07-25T10:19:58.309Z,5.50
2022-07-25T10:20:55.071Z,4.90
2022-07-25T10:21:53.021Z,5.40
2022-07-25T10:22:57.358Z,5.50
2022-07-25T10:23:54.022Z,5.40
2022-07-25T10:24:52.987Z,5.50
2022-07-25T10:25:53.025Z,5.80
2022-07-25T10:26:53.000Z,5.70
2022-07-25T10:27:52.973Z,5.70
2022-07-25T10:28:53.000Z,5.80
2022-07-25T10:29:52.971Z,5.40
2022-07-25T10:30:53.105Z,5.70
2022-07-25T10:31:52.934Z,5.70
2022-07-25T10:32:52.971Z,5.70
2022-07-25T10:33:53.192Z,5.60
2022-07-25T10:34:52.978Z,5.60
2022-07-25T10:35:52.916Z,5.70
2022-07-25T10:36:52.892Z,5.60
2022-07-25T10:37:52.948Z,5.90
2022-07-25T10:38:52.956Z,5.90
2022-07-25T10:39:52.883Z,5.60
2022-07-25T10:40:52.860Z,6.00
2022-07-25T10:41:52.817Z,6.20
2022-07-25T10:42:52.871Z,5.70
2022-07-25T10:43:52.847Z,6.10
2022-07-25T10:44:52.827Z,5.40
2022-07-25T10:45:52.864Z,5.50
2022-07-25T10:46:52.829Z,5.50
2022-07-25T10:47:52.761Z,5.40
2022-07-25T10:48:52.953Z,5.40
2022-07-25T10:50:15.171Z,5.90
2022-07-25T10:50:56.283Z,6.20
2022-07-25T10:51:53.805Z,5.90
2022-07-25T10:52:52.787Z,5.90
2022-07-25T10:53:52.729Z,6.00
2022-07-25T10:54:52.733Z,6.00
2022-07-25T10:56:05.355Z,6.10
2022-07-25T10:56:54.698Z,6.00
2022-07-25T10:58:16.228Z,5.90
2022-07-25T10:58:54.701Z,6.00
2022-07-25T10:59:53.703Z,5.70
2022-07-25T11:00:52.751Z,6.40
2022-07-25T11:01:52.747Z,6.00
2022-07-25T11:02:52.777Z,6.00
2022-07-25T11:03:52.605Z,5.40
2022-07-25T11:04:52.649Z,6.20
2022-07-25T11:05:52.643Z,5.50
2022-07-25T11:06:52.602Z,5.40
2022-07-25T11:08:18.853Z,5.50
2022-07-25T11:08:54.605Z,5.70
2022-07-25T11:09:52.551Z,5.50
2022-07-25T11:10:53.801Z,5.30
2022-07-25T11:11:52.606Z,5.50
2022-07-25T11:12:52.579Z,5.90
2022-07-25T11:13:53.568Z,6.00
2022-07-25T11:14:52.493Z,5.70
2022-07-25T11:15:52.542Z,5.50
2022-07-25T11:16:52.603Z,5.90
2022-07-25T11:17:52.490Z,5.60
2022-07-25T11:18:52.466Z,5.20
2022-07-25T11:19:52.496Z,5.10
2022-07-25T11:20:52.534Z,5.20
2022-07-25T11:21:52.417Z,4.80
2022-07-25T11:22:52.539Z,4.60
2022-07-25T11:23:52.485Z,4.80
2022-07-25T11:24:52.384Z,4.70
2022-07-25T11:25:52.442Z,4.70
2022-07-25T11:26:52.389Z,4.90
2022-07-25T11:27:52.396Z,4.80
2022-07-25T11:28:52.380Z,4.70
2022-07-25T11:29:52.357Z,4.90
2022-07-25T11:30:52.359Z,5.00
2022-07-25T11:31:53.439Z,4.50
2022-07-25T11:32:52.334Z,4.50
2022-07-25T11:33:52.360Z,4.70
2022-07-25T11:34:52.392Z,4.70
2022-07-25T11:35:52.330Z,4.90
2022-07-25T11:36:52.285Z,4.80
2022-07-25T11:37:52.266Z,4.80
2022-07-25T11:38:52.302Z,5.10
2022-07-25T11:39:53.747Z,5.10
2022-07-25T11:40:52.239Z,5.10
2022-07-25T11:41:52.384Z,4.80
2022-07-25T11:42:52.262Z,4.90
2022-07-25T11:43:52.319Z,4.70
2022-07-25T11:44:52.194Z,4.80
2022-07-25T11:45:52.288Z,4.80
2022-07-25T11:46:52.213Z,5.10
2022-07-25T11:47:52.210Z,4.30
2022-07-25T11:48:52.253Z,4.70
2022-07-25T11:49:52.218Z,4.90
2022-07-25T11:50:52.199Z,5.10
2022-07-25T11:51:52.181Z,5.30
2022-07-25T11:52:52.126Z,5.30
2022-07-25T11:53:52.227Z,4.90
2022-07-25T11:54:52.183Z,4.70
2022-07-25T11:55:52.159Z,4.90
2022-07-25T11:56:52.121Z,4.70
2022-07-25T11:57:52.179Z,5.10
2022-07-25T11:58:52.118Z,5.00
2022-07-25T11:59:52.196Z,5.40
2022-07-25T12:00:52.088Z,4.70
2022-07-25T12:01:52.135Z,5.00
2022-07-25T12:02:52.174Z,4.70
2022-07-25T12:03:52.151Z,4.70
2022-07-25T12:04:52.043Z,4.60
2022-07-25T12:05:52.113Z,5.00
2022-07-25T12:06:52.041Z,4.80
2022-07-25T12:07:52.049Z,4.80
2022-07-25T12:08:52.015Z,5.00
2022-07-25T12:09:52.029Z,4.70
2022-07-25T12:10:51.999Z,4.80
2022-07-25T12:11:51.983Z,4.90
2022-07-25T12:12:52.004Z,4.90
2022-07-25T12:13:51.972Z,4.80
2022-07-25T12:14:52.027Z,5.00
2022-07-25T12:15:52.024Z,4.60
2022-07-25T12:16:52.058Z,4.70
2022-07-25T12:17:52.014Z,4.70
2022-07-25T12:18:52.064Z,4.60
2022-07-25T12:19:51.950Z,4.80
2022-07-25T12:20:51.907Z,4.70
2022-07-25T12:21:51.918Z,5.00
2022-07-25T12:22:51.956Z,4.50
2022-07-25T12:23:51.994Z,4.40
2022-07-25T12:24:51.956Z,4.40
2022-07-25T12:25:51.918Z,4.60
2022-07-25T12:26:52.925Z,4.60
2022-07-25T12:27:51.864Z,4.80
2022-07-25T12:28:51.941Z,4.70
2022-07-25T12:29:51.848Z,4.30
2022-07-25T12:30:56.558Z,4.10
2022-07-25T12:31:52.842Z,4.30
2022-07-25T12:32:51.886Z,4.70
2022-07-25T12:33:51.891Z,4.70
2022-07-25T12:34:51.810Z,5.00
2022-07-25T12:35:51.803Z,5.00
2022-07-25T12:36:51.842Z,5.00
2022-07-25T12:37:51.901Z,5.00
2022-07-25T12:38:51.862Z,4.90
2022-07-25T12:39:51.802Z,4.90
2022-07-25T12:40:51.799Z,5.20
2022-07-25T12:41:51.832Z,4.90
2022-07-25T12:42:51.731Z,4.80
2022-07-25T12:43:51.857Z,4.90
2022-07-25T12:44:51.740Z,4.90
2022-07-25T12:45:51.792Z,5.10
2022-07-25T12:46:51.705Z,5.30
2022-07-25T12:47:51.721Z,5.00
2022-07-25T12:48:51.835Z,4.70
2022-07-25T12:49:51.800Z,5.00
2022-07-25T12:50:51.736Z,5.30
2022-07-25T12:51:57.686Z,5.20
2022-07-25T12:52:53.660Z,5.30
2022-07-25T12:53:51.744Z,5.10
2022-07-25T12:54:51.864Z,5.60
2022-07-25T12:55:51.746Z,5.70
2022-07-25T12:56:51.765Z,5.40
2022-07-25T12:57:51.721Z,5.40
2022-07-25T12:58:51.679Z,4.90
2022-07-25T12:59:51.656Z,4.90
2022-07-25T13:00:51.617Z,4.80
2022-07-25T13:01:51.712Z,4.40
2022-07-25T13:02:51.703Z,4.50
2022-07-25T13:03:51.668Z,4.90
2022-07-25T13:04:51.574Z,4.90
2022-07-25T13:05:51.540Z,5.20
2022-07-25T13:06:51.617Z,5.10
2022-07-25T13:07:51.528Z,5.30
2022-07-25T13:08:51.487Z,5.30
2022-07-25T13:09:51.714Z,5.10
2022-07-25T13:10:51.824Z,5.00
2022-07-25T13:11:51.597Z,5.10
2022-07-25T13:12:51.532Z,5.10
2022-07-25T13:13:51.467Z,5.20
2022-07-25T13:14:51.505Z,4.90
2022-07-25T13:15:51.479Z,5.00
2022-07-25T13:16:51.559Z,5.00